Panagia Armata — 9HA3472 — position and weather

sailwx.info

Track history (hours):
 
Tides and Currents Weather Stations Pressure Air Temp Water Temp Dewpoint Dewpoint Depression Visibility Wind Speed Wind Dir Waves Ship Positions

Panagia Armata

Last reported at 2018-Jun-16 16:20 UTC. Time now 2018-Jun-25 08:17 UTC.
Position N 37°07' E 015°47'.
Warning: this ship's position is 8 days out of date.

Length 248 m; draft 12.6 m.

Type: Tanker. MMSI: 229637000.

Date/timePositionNaut miles runAvg speedWind from/ knotsBaromVisibWave heightAir tempDewpointWater temp
2018-Jun-16 16:20N 37°07' E 015°47'39211.1
2018-Jun-15 05:05N 36°48' E 023°58'2712.5
2018-Jun-15 02:53N 37°14' E 024°11'6512.1
2018-Jun-14 21:29N 38°13' E 024°45'3811.8
2018-Jun-14 18:15N 38°47' E 025°07'6612.0
2018-Jun-14 12:42N 39°47' E 025°44'212.3
2018-Jun-14 12:30N 39°49' E 025°46'612.3
2018-Jun-14 12:01N 39°54' E 025°50'612.4
2018-Jun-14 11:31N 39°58' E 025°56'611.1
2018-Jun-14 11:01N 40°01' E 026°02'611.6
2018-Jun-14 10:29N 40°02' E 026°10'1410.8
2018-Jun-14 09:12N 40°12' E 026°23'63 9.9
2018-Jun-14 02:50N 40°45' E 027°33'611.5
2018-Jun-14 02:18N 40°47' E 027°41'411.9
2018-Jun-14 02:01N 40°47' E 027°46'611.8
2018-Jun-14 01:30N 40°48' E 027°53'611.7
2018-Jun-14 01:00N 40°49' E 028°01'611.5
2018-Jun-14 00:30N 40°50' E 028°09'611.5
2018-Jun-14 00:01N 40°51' E 028°16'611.5
2018-Jun-13 23:30N 40°52' E 028°24'611.2
2018-Jun-13 23:00N 40°52' E 028°31'611.1
2018-Jun-13 22:30N 40°53' E 028°38'611.5
2018-Jun-13 22:01N 40°54' E 028°46'5 8.9
2018-Jun-13 21:29N 40°56' E 028°51'0 0.9
2018-Jun-13 21:00N 40°56' E 028°51'0 0.2
2018-Jun-13 20:30N 40°56' E 028°51'0 0.3
2018-Jun-13 20:00N 40°56' E 028°51'0 0.1
2018-Jun-13 19:30N 40°56' E 028°51'0 1.0
2018-Jun-13 19:00N 40°56' E 028°52'1 2.6
2018-Jun-13 18:30N 40°56' E 028°53'3 5.3
2018-Jun-13 17:59N 40°57' E 028°57'16 9.7
2018-Jun-13 16:17N 41°12' E 029°07'2 8.7
2018-Jun-13 16:00N 41°14' E 029°08'6 5.6
2018-Jun-13 14:54N 41°21' E 029°08'5 7.5
2018-Jun-13 14:14N 41°26' E 029°08'2 7.4
2018-Jun-13 14:00N 41°27' E 029°09'4 7.1
2018-Jun-13 13:30N 41°30' E 029°11'3 5.5
2018-Jun-13 13:01N 41°33' E 029°12'3 5.8
2018-Jun-13 12:30N 41°36' E 029°13'5 9.6
2018-Jun-13 12:00N 41°39' E 029°17'710.6
2018-Jun-13 11:19N 41°42' E 029°26'2 7.6
2018-Jun-13 11:00N 41°43' E 029°29'1510.1
2018-Jun-13 09:33N 41°48' E 029°48'111.7
2018-Jun-13 09:30N 41°48' E 029°49'611.8
2018-Jun-13 09:00N 41°49' E 029°56'611.9
2018-Jun-13 08:30N 41°51' E 030°04'612.0
2018-Jun-13 08:01N 41°52' E 030°12'611.7
2018-Jun-13 07:30N 41°53' E 030°20'510.5
2018-Jun-13 06:59N 41°51' E 030°27'612.2
2018-Jun-13 06:28N 41°54' E 030°34'912.1
2018-Jun-13 05:45N 41°57' E 030°45'612.4
2018-Jun-13 05:15N 41°59' E 030°53'312.3
2018-Jun-13 05:00N 42°01' E 030°57'812.2
2018-Jun-13 04:21N 42°04' E 031°06'412.2
2018-Jun-13 04:00N 42°06' E 031°12'1012.1
2018-Jun-13 03:12N 42°09' E 031°24'312.0
2018-Jun-13 02:59N 42°10' E 031°27'611.9
2018-Jun-13 02:30N 42°13' E 031°34'611.8
2018-Jun-13 02:00N 42°15' E 031°41'612.0
2018-Jun-13 01:30N 42°18' E 031°48'612.2
2018-Jun-13 01:01N 42°20' E 031°56'612.4
2018-Jun-13 00:30N 42°22' E 032°04'612.5
2018-Jun-13 00:00N 42°25' E 032°11'1012.3
2018-Jun-12 23:13N 42°29' E 032°23'211.7
2018-Jun-12 23:00N 42°30' E 032°26'611.8
2018-Jun-12 22:30N 42°32' E 032°34'2811.8
2018-Jun-12 20:05N 42°44' E 033°09'111.7
2018-Jun-12 19:59N 42°44' E 033°11'6511.9
2018-Jun-12 14:28N 42°44' E 034°40'811.7
2018-Jun-12 13:50N 42°43' E 034°50'411.8
2018-Jun-12 13:30N 42°43' E 034°55'611.7
2018-Jun-12 12:59N 42°42' E 035°04'611.7
2018-Jun-12 12:28N 42°41' E 035°12'2511.9
2018-Jun-12 10:22N 42°37' E 035°46'2411.7
2018-Jun-12 08:18N 42°34' E 036°18'  
2018-Jun-09 02:39N 42°50' E 038°03'613.0
2018-Jun-09 02:13N 42°52' E 037°56'313.0
2018-Jun-09 01:58N 42°53' E 037°52'20513.0
2018-Jun-08 10:13N 43°43' E 033°18'312.9
2018-Jun-08 10:00N 43°44' E 033°15'712.8
2018-Jun-08 09:29N 43°48' E 033°07'612.7
2018-Jun-08 09:00N 43°51' E 032°60'612.7
2018-Jun-08 08:30N 43°54' E 032°52'712.6
2018-Jun-08 07:59N 43°57' E 032°44'912.5
2018-Jun-08 07:17N 44°02' E 032°34'312.6
2018-Jun-08 07:00N 44°03' E 032°30'3511.6
2018-Jun-08 03:58N 44°29' E 031°56'612.0
2018-Jun-08 03:30N 44°35' E 031°54'611.9
2018-Jun-08 03:00N 44°40' E 031°51'611.8
2018-Jun-08 02:30N 44°46' E 031°48'611.7
2018-Jun-08 02:00N 44°51' E 031°45'711.9
2018-Jun-08 01:25N 44°58' E 031°41'912.2
2018-Jun-08 00:42N 45°06' E 031°37'212.4
2018-Jun-08 00:30N 45°08' E 031°36'612.4
2018-Jun-08 00:00N 45°14' E 031°33'612.6
2018-Jun-07 23:30N 45°20' E 031°30'612.7
2018-Jun-07 23:00N 45°26' E 031°27'5412.6
2018-Jun-07 18:42N 46°15' E 030°54'312.6
2018-Jun-07 18:30N 46°18' E 030°53'612.7
2018-Jun-07 18:00N 46°24' E 030°51'611.8
2018-Jun-07 17:30N 46°30' E 030°48'3 5.3
2018-Jun-07 17:00N 46°30' E 030°44'0 0.8
2018-Jun-07 16:26N 46°31' E 030°44'0 0.0
2018-Jun-07 15:53N 46°31' E 030°44'0 0.0
2018-Jun-07 15:20N 46°31' E 030°44'0 0.0
2018-Jun-07 14:59N 46°31' E 030°44'0 0.0
2018-Jun-07 14:29N 46°31' E 030°44'0 0.0
2018-Jun-07 13:59N 46°31' E 030°44'0 0.0
2018-Jun-07 13:29N 46°31' E 030°44'0 0.0
2018-Jun-07 12:59N 46°31' E 030°44'0 0.0
2018-Jun-07 12:17N 46°31' E 030°44'0 0.0
2018-Jun-07 11:50N 46°31' E 030°44'0 0.0
2018-Jun-07 11:14N 46°31' E 030°44'0 0.0
2018-Jun-07 10:53N 46°31' E 030°44'0 0.0
2018-Jun-07 10:23N 46°31' E 030°44'0 0.0
2018-Jun-07 09:59N 46°31' E 030°44'0 0.0
2018-Jun-07 09:29N 46°31' E 030°44'0 0.0
2018-Jun-07 08:59N 46°31' E 030°44'0 0.0
2018-Jun-07 08:26N 46°31' E 030°44'0 0.0
2018-Jun-07 07:50N 46°31' E 030°44'0 0.0
2018-Jun-07 07:29N 46°31' E 030°44'0 0.0
2018-Jun-07 06:56N 46°31' E 030°44'0 0.0
2018-Jun-07 06:26N 46°31' E 030°44'0 0.0
2018-Jun-07 05:59N 46°31' E 030°44'0 0.0
2018-Jun-07 05:29N 46°31' E 030°44'0 0.0
2018-Jun-07 04:59N 46°31' E 030°44'0 0.0
2018-Jun-07 04:29N 46°31' E 030°44'0 0.0
2018-Jun-07 03:56N 46°31' E 030°44'0 0.0
2018-Jun-07 03:14N 46°31' E 030°44'0 0.0
2018-Jun-07 02:56N 46°31' E 030°44'0 0.0
2018-Jun-07 02:29N 46°31' E 030°44'0 0.0
2018-Jun-07 01:56N 46°31' E 030°44'0 0.0
2018-Jun-07 01:29N 46°31' E 030°44'0 0.0
2018-Jun-07 00:56N 46°31' E 030°44'0 0.0
2018-Jun-07 00:26N 46°31' E 030°44'0 0.0
2018-Jun-06 23:59N 46°31' E 030°44'0 0.0
2018-Jun-06 23:26N 46°31' E 030°44'0 0.0
2018-Jun-06 22:56N 46°31' E 030°44'0 0.0
2018-Jun-06 22:26N 46°31' E 030°44'0 0.0
2018-Jun-06 21:59N 46°31' E 030°44'0 0.0
2018-Jun-06 21:29N 46°31' E 030°44'0 0.0
2018-Jun-06 20:59N 46°31' E 030°44'0 0.0
2018-Jun-06 20:23N 46°31' E 030°44'0 0.0
2018-Jun-06 19:59N 46°31' E 030°44'0 0.0
2018-Jun-06 19:20N 46°31' E 030°44'0 0.0
2018-Jun-06 18:56N 46°31' E 030°44'0 0.0
2018-Jun-06 18:29N 46°31' E 030°44'0 0.0
2018-Jun-06 17:59N 46°31' E 030°44'0 0.0
2018-Jun-06 17:29N 46°31' E 030°44'0 0.0
2018-Jun-06 16:56N 46°31' E 030°44'0 0.0
2018-Jun-06 16:29N 46°31' E 030°44'  
Track history (hours):
 
Tides and Currents Weather Stations Pressure Air Temp Water Temp Dewpoint Dewpoint Depression Visibility Wind Speed Wind Dir Waves Ship Positions

Panagia Armata

Last reported at 2018-Jun-16 16:20 UTC. Time now 2018-Jun-25 08:17 UTC.
Position N 37°07' E 015°47'.
Warning: this ship's position is 8 days out of date.

Length 248 m; draft 12.6 m.

Type: Tanker. MMSI: 229637000.

Date/timePositionNaut miles runAvg speedWind from/ knotsBaromVisibWave heightAir tempDewpointWater temp
2018-Jun-16 16:20N 37°07' E 015°47'39211.1
2018-Jun-15 05:05N 36°48' E 023°58'2712.5
2018-Jun-15 02:53N 37°14' E 024°11'6512.1
2018-Jun-14 21:29N 38°13' E 024°45'3811.8
2018-Jun-14 18:15N 38°47' E 025°07'6612.0
2018-Jun-14 12:42N 39°47' E 025°44'212.3
2018-Jun-14 12:30N 39°49' E 025°46'612.3
2018-Jun-14 12:01N 39°54' E 025°50'612.4
2018-Jun-14 11:31N 39°58' E 025°56'611.1
2018-Jun-14 11:01N 40°01' E 026°02'611.6
2018-Jun-14 10:29N 40°02' E 026°10'1410.8
2018-Jun-14 09:12N 40°12' E 026°23'63 9.9
2018-Jun-14 02:50N 40°45' E 027°33'611.5
2018-Jun-14 02:18N 40°47' E 027°41'411.9
2018-Jun-14 02:01N 40°47' E 027°46'611.8
2018-Jun-14 01:30N 40°48' E 027°53'611.7
2018-Jun-14 01:00N 40°49' E 028°01'611.5
2018-Jun-14 00:30N 40°50' E 028°09'611.5
2018-Jun-14 00:01N 40°51' E 028°16'611.5
2018-Jun-13 23:30N 40°52' E 028°24'611.2
2018-Jun-13 23:00N 40°52' E 028°31'611.1
2018-Jun-13 22:30N 40°53' E 028°38'611.5
2018-Jun-13 22:01N 40°54' E 028°46'5 8.9
2018-Jun-13 21:29N 40°56' E 028°51'0 0.9
2018-Jun-13 21:00N 40°56' E 028°51'0 0.2
2018-Jun-13 20:30N 40°56' E 028°51'0 0.3
2018-Jun-13 20:00N 40°56' E 028°51'0 0.1
2018-Jun-13 19:30N 40°56' E 028°51'0 1.0
2018-Jun-13 19:00N 40°56' E 028°52'1 2.6
2018-Jun-13 18:30N 40°56' E 028°53'3 5.3
2018-Jun-13 17:59N 40°57' E 028°57'16 9.7
2018-Jun-13 16:17N 41°12' E 029°07'2 8.7
2018-Jun-13 16:00N 41°14' E 029°08'6 5.6
2018-Jun-13 14:54N 41°21' E 029°08'5 7.5
2018-Jun-13 14:14N 41°26' E 029°08'2 7.4
2018-Jun-13 14:00N 41°27' E 029°09'4 7.1
2018-Jun-13 13:30N 41°30' E 029°11'3 5.5
2018-Jun-13 13:01N 41°33' E 029°12'3 5.8
2018-Jun-13 12:30N 41°36' E 029°13'5 9.6
2018-Jun-13 12:00N 41°39' E 029°17'710.6
2018-Jun-13 11:19N 41°42' E 029°26'2 7.6
2018-Jun-13 11:00N 41°43' E 029°29'1510.1
2018-Jun-13 09:33N 41°48' E 029°48'111.7
2018-Jun-13 09:30N 41°48' E 029°49'611.8
2018-Jun-13 09:00N 41°49' E 029°56'611.9
2018-Jun-13 08:30N 41°51' E 030°04'612.0
2018-Jun-13 08:01N 41°52' E 030°12'611.7
2018-Jun-13 07:30N 41°53' E 030°20'510.5
2018-Jun-13 06:59N 41°51' E 030°27'612.2
2018-Jun-13 06:28N 41°54' E 030°34'912.1
2018-Jun-13 05:45N 41°57' E 030°45'612.4
2018-Jun-13 05:15N 41°59' E 030°53'312.3
2018-Jun-13 05:00N 42°01' E 030°57'812.2
2018-Jun-13 04:21N 42°04' E 031°06'412.2
2018-Jun-13 04:00N 42°06' E 031°12'1012.1
2018-Jun-13 03:12N 42°09' E 031°24'312.0
2018-Jun-13 02:59N 42°10' E 031°27'611.9
2018-Jun-13 02:30N 42°13' E 031°34'611.8
2018-Jun-13 02:00N 42°15' E 031°41'612.0
2018-Jun-13 01:30N 42°18' E 031°48'612.2
2018-Jun-13 01:01N 42°20' E 031°56'612.4
2018-Jun-13 00:30N 42°22' E 032°04'612.5
2018-Jun-13 00:00N 42°25' E 032°11'1012.3
2018-Jun-12 23:13N 42°29' E 032°23'211.7
2018-Jun-12 23:00N 42°30' E 032°26'611.8
2018-Jun-12 22:30N 42°32' E 032°34'2811.8
2018-Jun-12 20:05N 42°44' E 033°09'111.7
2018-Jun-12 19:59N 42°44' E 033°11'6511.9
2018-Jun-12 14:28N 42°44' E 034°40'811.7
2018-Jun-12 13:50N 42°43' E 034°50'411.8
2018-Jun-12 13:30N 42°43' E 034°55'611.7
2018-Jun-12 12:59N 42°42' E 035°04'611.7
2018-Jun-12 12:28N 42°41' E 035°12'2511.9
2018-Jun-12 10:22N 42°37' E 035°46'2411.7
2018-Jun-12 08:18N 42°34' E 036°18'  
2018-Jun-09 02:39N 42°50' E 038°03'613.0
2018-Jun-09 02:13N 42°52' E 037°56'313.0
2018-Jun-09 01:58N 42°53' E 037°52'20513.0
2018-Jun-08 10:13N 43°43' E 033°18'312.9
2018-Jun-08 10:00N 43°44' E 033°15'712.8
2018-Jun-08 09:29N 43°48' E 033°07'612.7
2018-Jun-08 09:00N 43°51' E 032°60'612.7
2018-Jun-08 08:30N 43°54' E 032°52'712.6
2018-Jun-08 07:59N 43°57' E 032°44'912.5
2018-Jun-08 07:17N 44°02' E 032°34'312.6
2018-Jun-08 07:00N 44°03' E 032°30'3511.6
2018-Jun-08 03:58N 44°29' E 031°56'612.0
2018-Jun-08 03:30N 44°35' E 031°54'611.9
2018-Jun-08 03:00N 44°40' E 031°51'611.8
2018-Jun-08 02:30N 44°46' E 031°48'611.7
2018-Jun-08 02:00N 44°51' E 031°45'711.9
2018-Jun-08 01:25N 44°58' E 031°41'912.2
2018-Jun-08 00:42N 45°06' E 031°37'212.4
2018-Jun-08 00:30N 45°08' E 031°36'612.4
2018-Jun-08 00:00N 45°14' E 031°33'612.6
2018-Jun-07 23:30N 45°20' E 031°30'612.7
2018-Jun-07 23:00N 45°26' E 031°27'5412.6
2018-Jun-07 18:42N 46°15' E 030°54'312.6
2018-Jun-07 18:30N 46°18' E 030°53'612.7
2018-Jun-07 18:00N 46°24' E 030°51'611.8
2018-Jun-07 17:30N 46°30' E 030°48'3 5.3
2018-Jun-07 17:00N 46°30' E 030°44'0 0.8
2018-Jun-07 16:26N 46°31' E 030°44'0 0.0
2018-Jun-07 15:53N 46°31' E 030°44'0 0.0
2018-Jun-07 15:20N 46°31' E 030°44'0 0.0
2018-Jun-07 14:59N 46°31' E 030°44'0 0.0
2018-Jun-07 14:29N 46°31' E 030°44'0 0.0
2018-Jun-07 13:59N 46°31' E 030°44'0 0.0
2018-Jun-07 13:29N 46°31' E 030°44'0 0.0
2018-Jun-07 12:59N 46°31' E 030°44'0 0.0
2018-Jun-07 12:17N 46°31' E 030°44'0 0.0
2018-Jun-07 11:50N 46°31' E 030°44'0 0.0
2018-Jun-07 11:14N 46°31' E 030°44'0 0.0
2018-Jun-07 10:53N 46°31' E 030°44'0 0.0
2018-Jun-07 10:23N 46°31' E 030°44'0 0.0
2018-Jun-07 09:59N 46°31' E 030°44'0 0.0
2018-Jun-07 09:29N 46°31' E 030°44'0 0.0
2018-Jun-07 08:59N 46°31' E 030°44'0 0.0
2018-Jun-07 08:26N 46°31' E 030°44'0 0.0
2018-Jun-07 07:50N 46°31' E 030°44'0 0.0
2018-Jun-07 07:29N 46°31' E 030°44'0 0.0
2018-Jun-07 06:56N 46°31' E 030°44'0 0.0
2018-Jun-07 06:26N 46°31' E 030°44'0 0.0
2018-Jun-07 05:59N 46°31' E 030°44'0 0.0
2018-Jun-07 05:29N 46°31' E 030°44'0 0.0
2018-Jun-07 04:59N 46°31' E 030°44'0 0.0
2018-Jun-07 04:29N 46°31' E 030°44'0 0.0
2018-Jun-07 03:56N 46°31' E 030°44'0 0.0
2018-Jun-07 03:14N 46°31' E 030°44'0 0.0
2018-Jun-07 02:56N 46°31' E 030°44'0 0.0
2018-Jun-07 02:29N 46°31' E 030°44'0 0.0
2018-Jun-07 01:56N 46°31' E 030°44'0 0.0
2018-Jun-07 01:29N 46°31' E 030°44'0 0.0
2018-Jun-07 00:56N 46°31' E 030°44'0 0.0
2018-Jun-07 00:26N 46°31' E 030°44'0 0.0
2018-Jun-06 23:59N 46°31' E 030°44'0 0.0
2018-Jun-06 23:26N 46°31' E 030°44'0 0.0
2018-Jun-06 22:56N 46°31' E 030°44'0 0.0
2018-Jun-06 22:26N 46°31' E 030°44'0 0.0
2018-Jun-06 21:59N 46°31' E 030°44'0 0.0
2018-Jun-06 21:29N 46°31' E 030°44'0 0.0
2018-Jun-06 20:59N 46°31' E 030°44'0 0.0
2018-Jun-06 20:23N 46°31' E 030°44'0 0.0
2018-Jun-06 19:59N 46°31' E 030°44'0 0.0
2018-Jun-06 19:20N 46°31' E 030°44'0 0.0
2018-Jun-06 18:56N 46°31' E 030°44'0 0.0
2018-Jun-06 18:29N 46°31' E 030°44'0 0.0
2018-Jun-06 17:59N 46°31' E 030°44'0 0.0
2018-Jun-06 17:29N 46°31' E 030°44'0 0.0
2018-Jun-06 16:56N 46°31' E 030°44'0 0.0
2018-Jun-06 16:29N 46°31' E 030°44'  

Dump ship's entire track history